Time;durP1;ratioP1;P1;durP2;ratioP2;P2;SDS_P1;SDS_P2;PMS_P1;PMS_P2;Temp;Humidity;BMP_temperature;BMP_pressure;BME280_temperature;BME280_humidity;BME280_pressure;Samples;Min_cycle;Max_cycle;Signal;HPM_P1;HPM_P2
2022/09/07 00:00:25;;;;;;;;;3.50;3.50;;;;;23.15;54.17;100668.06;4996463;28;45367;-57
2022/09/07 00:02:51;;;;;;;;;1.75;1.75;;;;;23.37;54.40;100696.66;4996650;28;45682;-56
2022/09/07 00:05:16;;;;;;;;;6.00;5.00;;;;;23.25;55.01;100691.44;4997558;28;46384;-57
2022/09/07 00:07:42;;;;;;;;;1.50;1.50;;;;;22.95;54.86;100651.53;4997634;28;45596;-57
2022/09/07 00:10:07;;;;;;;;;2.25;2.00;;;;;23.13;55.02;100667.53;4996517;28;45501;-57
2022/09/07 00:12:33;;;;;;;;;2.00;2.00;;;;;23.27;54.79;100694.78;4986704;28;45693;-57
2022/09/07 00:15:00;;;;;;;;;4.00;2.25;;;;;23.11;54.77;100685.75;4997670;28;45411;-57
2022/09/07 00:17:26;;;;;;;;;5.00;3.00;;;;;23.22;55.25;100700.44;4995986;28;45506;-57
2022/09/07 00:19:54;;;;;;;;;3.25;2.25;;;;;23.11;55.31;100700.56;4997897;28;45496;-58
2022/09/07 00:22:20;;;;;;;;;2.60;2.60;;;;;23.11;55.70;100692.16;4996408;28;45548;-57
2022/09/07 00:24:45;;;;;;;;;4.60;3.20;;;;;23.14;55.62;100693.53;4997286;28;46688;-57
2022/09/07 00:27:11;;;;;;;;;11.00;8.25;;;;;23.13;55.87;100703.91;4997353;28;45518;-56
2022/09/07 00:29:36;;;;;;;;;8.50;7.25;;;;;23.12;56.11;100702.22;4997455;28;45343;-57
2022/09/07 00:32:02;;;;;;;;;5.00;2.75;;;;;23.11;55.55;100700.56;4996231;28;45450;-56
2022/09/07 00:34:28;;;;;;;;;12.75;11.50;;;;;23.19;56.03;100698.22;4984130;28;46565;-58
2022/09/07 00:36:53;;;;;;;;;7.75;7.75;;;;;23.05;56.11;100673.75;5013724;28;45369;-56
2022/09/07 00:39:19;;;;;;;;;4.00;3.00;;;;;23.25;56.05;100699.84;5017122;28;45524;-51
2022/09/07 00:41:45;;;;;;;;;3.00;3.00;;;;;23.21;56.27;100687.59;5015764;28;45485;-54
2022/09/07 00:44:41;;;;;;;;;6.00;3.00;;;;;23.24;56.21;100698.19;5016947;28;46029;-54
2022/09/07 00:47:14;;;;;;;;;3.40;3.40;;;;;23.17;56.48;100697.72;5017069;28;45491;-57
2022/09/07 00:49:39;;;;;;;;;4.40;4.40;;;;;23.10;56.87;100695.28;5000027;28;45370;-56
2022/09/07 00:52:05;;;;;;;;;4.75;4.75;;;;;23.09;56.84;100686.03;5015573;28;45544;-59
2022/09/07 00:54:35;;;;;;;;;4.00;4.00;;;;;23.07;56.93;100693.06;5013976;28;45491;-59
2022/09/07 00:57:01;;;;;;;;;6.00;6.00;;;;;22.88;56.94;100666.69;5015419;28;45488;-58
2022/09/07 00:59:30;;;;;;;;;3.25;3.25;;;;;22.74;57.17;100658.16;5016738;28;45390;-56
2022/09/07 01:01:55;;;;;;;;;8.60;7.00;;;;;22.94;57.14;100675.84;5015792;28;45481;-57
2022/09/07 01:04:21;;;;;;;;;4.00;4.00;;;;;22.96;57.66;100678.38;5016611;28;46322;-57
2022/09/07 01:06:47;;;;;;;;;6.00;5.00;;;;;22.99;57.55;100695.38;4998694;28;45371;-55
2022/09/07 01:09:14;;;;;;;;;6.25;4.75;;;;;22.99;57.44;100687.00;5015568;28;45354;-57
2022/09/07 01:11:40;;;;;;;;;4.80;4.80;;;;;23.06;57.84;100697.00;4998825;28;45612;-57
2022/09/07 01:14:07;;;;;;;;;3.50;3.50;;;;;23.06;57.67;100692.25;5014962;28;46531;-57
2022/09/07 01:16:41;;;;;;;;;9.80;6.00;;;;;23.08;57.71;100692.78;5015155;28;45401;-56
2022/09/07 01:19:16;;;;;;;;;4.40;3.80;;;;;23.05;57.84;100687.75;5015292;28;45338;-54
2022/09/07 01:22:14;;;;;;;;;2.80;2.80;;;;;22.98;57.63;100690.94;5015276;28;45432;-56
2022/09/07 01:24:45;;;;;;;;;5.20;4.20;;;;;23.02;57.36;100697.59;5015076;28;46143;-56
2022/09/07 01:27:46;;;;;;;;;3.80;2.80;;;;;23.00;57.09;100701.84;5031673;28;45931;-55
2022/09/07 01:30:13;;;;;;;;;3.20;3.00;;;;;22.96;57.35;100684.81;4997578;28;45554;-55
2022/09/07 01:32:54;;;;;;;;;2.20;2.20;;;;;22.94;56.65;100692.66;5015073;28;45422;-57
2022/09/07 01:35:39;;;;;;;;;4.80;3.20;;;;;22.68;56.58;100658.53;5016150;28;46660;-56
2022/09/07 01:38:26;;;;;;;;;2.00;2.00;;;;;22.86;56.65;100680.16;5014731;28;45463;-57
2022/09/07 01:40:52;;;;;;;;;2.20;2.20;;;;;22.83;56.54;100689.13;4998844;28;45498;-56
2022/09/07 01:43:53;;;;;;;;;2.00;2.00;;;;;22.78;56.33;100682.78;5016165;28;45331;-56
2022/09/07 01:46:30;;;;;;;;;3.00;3.00;;;;;22.76;56.39;100685.84;4995368;28;46646;-53
2022/09/07 01:49:03;;;;;;;;;1.60;1.60;;;;;22.45;55.80;100636.63;5014562;28;45534;-56
2022/09/07 01:51:30;;;;;;;;;2.40;2.40;;;;;22.51;56.01;100659.81;4999006;28;45438;-54
2022/09/07 01:53:58;;;;;;;;;2.40;2.40;;;;;22.42;55.93;100644.78;4998530;28;45542;-57
2022/09/07 01:56:30;;;;;;;;;3.00;2.20;;;;;22.62;55.96;100674.53;5014592;28;45468;-56
2022/09/07 01:58:58;;;;;;;;;2.00;2.00;;;;;22.33;55.78;100631.47;4997917;28;45462;-55
2022/09/07 02:01:26;;;;;;;;;3.40;3.00;;;;;22.59;55.67;100683.50;4987962;28;45399;-53
2022/09/07 02:04:01;;;;;;;;;2.40;1.00;;;;;22.23;55.62;100627.91;4983262;28;45407;-53
2022/09/07 02:06:42;;;;;;;;;2.60;2.60;;;;;22.54;55.55;100677.97;4994165;28;46239;-57
2022/09/07 02:09:24;;;;;;;;;3.60;3.00;;;;;22.51;55.79;100684.97;4995980;28;45383;-52
2022/09/07 02:11:50;;;;;;;;;3.00;2.00;;;;;22.07;55.47;100614.91;4994893;28;45461;-56
2022/09/07 02:14:23;;;;;;;;;1.25;1.25;;;;;22.43;55.32;100675.25;4995935;28;45528;-56
2022/09/07 02:17:11;;;;;;;;;1.00;1.00;;;;;22.39;55.42;100667.72;4978058;28;45473;-55
2022/09/07 02:20:05;;;;;;;;;1.60;1.60;;;;;22.32;55.32;100673.69;4995584;28;45387;-55
2022/09/07 02:22:32;;;;;;;;;2.40;2.40;;;;;22.23;55.44;100651.09;4992607;28;45561;-56
2022/09/07 02:25:00;;;;;;;;;2.00;2.00;;;;;22.32;55.49;100665.28;4978460;28;45663;-56
2022/09/07 02:27:39;;;;;;;;;1.00;1.00;;;;;22.14;54.80;100658.47;4995586;28;46207;-57
2022/09/07 02:30:05;;;;;;;;;2.40;2.00;;;;;22.15;55.21;100663.75;4978447;28;45442;-58
2022/09/07 02:32:31;;;;;;;;;1.00;1.00;;;;;22.18;55.36;100667.91;4994194;28;45542;-52
2022/09/07 02:34:56;;;;;;;;;2.50;2.50;;;;;22.21;55.27;100675.72;4978334;28;45701;-54
2022/09/07 02:37:22;;;;;;;;;2.25;1.00;;;;;22.20;55.12;100676.88;4993994;28;45459;-54
2022/09/07 02:39:48;;;;;;;;;1.00;1.00;;;;;22.12;55.14;100669.09;4995455;28;45336;-55
2022/09/07 02:42:13;;;;;;;;;0.80;0.80;;;;;22.14;55.25;100667.66;4994264;28;45434;-55
2022/09/07 02:44:39;;;;;;;;;1.75;1.00;;;;;22.14;55.26;100672.44;4995642;28;45292;-58
2022/09/07 02:47:11;;;;;;;;;2.40;1.40;;;;;22.12;55.73;100669.09;4994050;28;46391;-57
2022/09/07 02:49:56;;;;;;;;;1.20;1.20;;;;;22.12;55.46;100666.28;4995502;28;45398;-55
2022/09/07 02:52:35;;;;;;;;;3.00;1.60;;;;;22.10;55.21;100666.59;4994314;28;45429;-55
2022/09/07 02:55:04;;;;;;;;;1.60;1.00;;;;;22.09;54.98;100667.69;4994492;28;45346;-57
2022/09/07 02:57:41;;;;;;;;;2.80;2.40;;;;;22.07;55.19;100669.97;4995341;28;45445;-58
2022/09/07 03:00:12;;;;;;;;;1.80;1.80;;;;;21.94;54.98;100658.31;4994030;28;45488;-55
2022/09/07 03:02:53;;;;;;;;;2.00;1.00;;;;;22.02;55.17;100673.63;4994103;28;45485;-57
2022/09/07 03:05:27;;;;;;;;;1.00;1.00;;;;;22.00;55.21;100673.09;4994024;28;45340;-53
2022/09/07 03:08:00;;;;;;;;;3.00;1.40;;;;;21.98;55.08;100671.72;4994988;28;45626;-59
2022/09/07 03:10:26;;;;;;;;;2.00;2.00;;;;;21.87;55.22;100665.38;4994061;28;45463;-59
2022/09/07 03:12:51;;;;;;;;;1.80;1.00;;;;;21.75;55.32;100644.22;4977721;28;45429;-58
2022/09/07 03:15:19;;;;;;;;;1.75;1.75;;;;;21.66;55.35;100643.97;4994341;28;45533;-58
2022/09/07 03:17:45;;;;;;;;;0.80;0.80;;;;;21.83;55.21;100673.50;4978573;28;47017;-59
2022/09/07 03:20:11;;;;;;;;;0.00;0.00;;;;;21.86;54.97;100678.50;4997340;28;45304;-58
2022/09/07 03:22:36;;;;;;;;;0.25;0.00;;;;;21.62;54.87;100639.25;4997273;28;45360;-58
2022/09/07 03:25:03;;;;;;;;;5.25;1.25;;;;;21.44;55.11;100615.66;4997511;28;45369;-58
2022/09/07 03:27:30;;;;;;;;;1.80;1.00;;;;;21.77;55.06;100677.47;4998343;28;45717;-60
2022/09/07 03:29:56;;;;;;;;;2.00;2.00;;;;;21.75;55.07;100677.75;4997389;28;45508;-58
2022/09/07 03:32:21;;;;;;;;;1.00;1.00;;;;;21.71;55.07;100675.81;5013593;28;45370;-58
2022/09/07 03:34:47;;;;;;;;;2.00;1.00;;;;;21.75;55.10;100685.28;4997321;28;45414;-59
2022/09/07 03:37:13;;;;;;;;;1.25;1.25;;;;;21.70;55.29;100688.09;4998229;28;46194;-58
2022/09/07 03:39:38;;;;;;;;;2.00;2.00;;;;;21.66;55.38;100690.59;4998435;28;45287;-58
2022/09/07 03:42:04;;;;;;;;;1.00;1.00;;;;;21.64;55.82;100693.69;5015407;28;45271;-58
2022/09/07 03:44:29;;;;;;;;;2.75;2.00;;;;;21.58;55.72;100685.63;5017062;28;45580;-57
2022/09/07 03:46:55;;;;;;;;;2.00;2.00;;;;;21.35;55.70;100648.91;5017919;28;46235;-57
2022/09/07 03:49:20;;;;;;;;;4.25;1.50;;;;;21.53;55.51;100692.94;5016856;28;45306;-57
2022/09/07 03:51:46;;;;;;;;;2.00;1.00;;;;;21.44;55.83;100680.66;5018044;28;45434;-55
2022/09/07 03:54:11;;;;;;;;;1.00;1.00;;;;;21.52;55.75;100696.81;5000572;28;45346;-57
2022/09/07 03:56:37;;;;;;;;;1.50;1.00;;;;;21.43;55.49;100687.38;5016393;28;48158;-59
2022/09/07 03:59:02;;;;;;;;;1.00;1.00;;;;;21.37;55.74;100678.22;5016578;28;45774;-57
2022/09/07 04:01:28;;;;;;;;;1.75;1.00;;;;;21.46;55.87;100697.16;5015813;28;45748;-57
2022/09/07 04:03:56;;;;;;;;;2.00;2.00;;;;;21.45;56.11;100701.06;5016767;28;45951;-58
2022/09/07 04:06:22;;;;;;;;;1.00;1.00;;;;;21.41;56.17;100700.81;5017933;28;46106;-55
2022/09/07 04:08:47;;;;;;;;;0.75;0.75;;;;;21.39;56.28;100711.41;5017448;28;45382;-56
2022/09/07 04:11:16;;;;;;;;;2.25;1.25;;;;;21.36;56.34;100715.59;5018224;28;45240;-57
2022/09/07 04:13:42;;;;;;;;;3.20;2.00;;;;;21.33;56.33;100723.72;5017696;28;45658;-57
2022/09/07 04:16:10;;;;;;;;;2.00;1.00;;;;;21.29;56.40;100728.22;5017612;28;45335;-57
2022/09/07 04:18:36;;;;;;;;;1.00;1.00;;;;;21.27;56.19;100728.47;5015393;28;45455;-57
2022/09/07 04:21:01;;;;;;;;;1.75;1.75;;;;;21.29;56.62;100731.00;5017349;28;45485;-56
2022/09/07 04:23:27;;;;;;;;;2.00;2.00;;;;;21.25;56.26;100741.91;5016155;28;45653;-59
2022/09/07 04:25:52;;;;;;;;;1.75;1.75;;;;;21.18;56.56;100724.63;5003291;28;48056;-58
2022/09/07 04:28:19;;;;;;;;;0.00;0.00;;;;;21.16;56.91;100727.69;5015609;28;45319;-58
2022/09/07 04:30:45;;;;;;;;;1.00;1.00;;;;;21.15;56.69;100736.34;5017326;28;45240;-57
2022/09/07 04:33:10;;;;;;;;;2.00;1.00;;;;;21.12;56.94;100738.59;5016471;28;45698;-57
2022/09/07 04:35:37;;;;;;;;;1.50;1.00;;;;;21.13;56.78;100731.03;5032283;28;47962;-58
2022/09/07 04:38:02;;;;;;;;;1.60;1.60;;;;;21.10;56.56;100721.31;5016899;28;45395;-57
2022/09/07 04:40:28;;;;;;;;;3.00;1.25;;;;;21.13;56.79;100733.81;5017290;28;45328;-58
2022/09/07 04:42:53;;;;;;;;;1.00;1.00;;;;;21.12;56.83;100721.00;5015676;28;45663;-57
2022/09/07 04:45:19;;;;;;;;;2.25;1.25;;;;;21.13;56.90;100728.25;5016989;28;45481;-57
2022/09/07 04:47:48;;;;;;;;;1.75;1.75;;;;;21.11;56.85;100727.69;5015584;28;45461;-56
2022/09/07 04:50:17;;;;;;;;;2.00;2.00;;;;;21.09;56.96;100724.38;5017526;28;45354;-57
2022/09/07 04:52:43;;;;;;;;;3.00;2.80;;;;;21.10;57.02;100720.44;5017308;28;45238;-58
2022/09/07 04:55:09;;;;;;;;;2.00;2.00;;;;;21.02;57.20;100710.69;5016878;28;45449;-57
2022/09/07 04:57:34;;;;;;;;;2.00;2.00;;;;;21.08;56.93;100728.28;5016932;28;45490;-57
2022/09/07 05:00:00;;;;;;;;;1.25;1.25;;;;;20.79;56.92;100690.66;5015811;28;45470;-56
2022/09/07 05:02:25;;;;;;;;;1.75;1.75;;;;;21.03;57.04;100731.06;4999143;28;45434;-55
2022/09/07 05:04:51;;;;;;;;;1.25;1.25;;;;;20.84;56.91;100699.06;5016481;28;45924;-57
2022/09/07 05:07:17;;;;;;;;;2.75;1.50;;;;;20.99;56.98;100720.47;5016464;28;45366;-56
2022/09/07 05:09:42;;;;;;;;;1.75;1.75;;;;;21.06;57.08;100733.28;5014895;28;45481;-55
2022/09/07 05:12:08;;;;;;;;;2.50;1.50;;;;;21.01;56.95;100716.59;5015737;28;45390;-55
2022/09/07 05:14:33;;;;;;;;;0.50;0.50;;;;;21.08;57.35;100731.06;4998351;28;46368;-57
2022/09/07 05:16:59;;;;;;;;;2.00;2.00;;;;;21.06;56.95;100730.50;5015125;28;45208;-56
2022/09/07 05:19:25;;;;;;;;;2.00;2.00;;;;;21.05;57.06;100729.69;5016831;28;45363;-56
2022/09/07 05:21:51;;;;;;;;;2.00;1.80;;;;;21.06;57.11;100738.88;4999444;28;45485;-58
2022/09/07 05:24:16;;;;;;;;;3.00;2.50;;;;;21.06;57.27;100747.25;5016575;28;46514;-57
2022/09/07 05:26:42;;;;;;;;;2.25;2.25;;;;;20.90;57.29;100724.13;5016900;28;45419;-57
2022/09/07 05:29:08;;;;;;;;;3.50;1.00;;;;;21.01;57.24;100733.31;5016790;28;45417;-57
2022/09/07 05:31:34;;;;;;;;;1.40;1.40;;;;;21.03;57.44;100745.03;5016826;28;45383;-58
2022/09/07 05:33:59;;;;;;;;;2.25;2.25;;;;;20.98;57.66;100752.28;5016419;28;45413;-56
2022/09/07 05:36:25;;;;;;;;;2.00;1.25;;;;;20.96;57.21;100748.09;4998014;28;45501;-57
2022/09/07 05:38:54;;;;;;;;;6.80;2.20;;;;;20.97;57.67;100741.44;4988823;28;45477;-56
2022/09/07 05:41:23;;;;;;;;;1.80;1.80;;;;;20.72;57.71;100709.63;5010467;28;45513;-58
2022/09/07 05:43:49;;;;;;;;;4.60;2.00;;;;;20.96;57.83;100745.31;4995573;28;46543;-59
2022/09/07 05:46:15;;;;;;;;;1.50;1.50;;;;;20.95;57.75;100738.91;5015184;28;45408;-58
2022/09/07 05:48:40;;;;;;;;;2.00;1.75;;;;;20.91;57.71;100732.22;5016587;28;45482;-58
2022/09/07 05:51:06;;;;;;;;;3.25;3.25;;;;;20.86;57.71;100723.84;5011985;28;45405;-58
2022/09/07 05:53:39;;;;;;;;;2.75;2.75;;;;;20.74;57.61;100706.56;5012277;28;45725;-58
2022/09/07 05:56:05;;;;;;;;;2.00;2.00;;;;;20.90;57.85;100741.69;5011254;28;45394;-58
2022/09/07 05:58:31;;;;;;;;;4.25;2.50;;;;;20.85;58.04;100734.19;5016273;28;45738;-60
2022/09/07 06:01:00;;;;;;;;;3.00;3.00;;;;;20.76;57.98;100716.31;5013748;28;45595;-59
2022/09/07 06:03:26;;;;;;;;;3.00;3.00;;;;;20.87;57.81;100742.28;5025215;28;46544;-58
2022/09/07 06:06:08;;;;;;;;;3.00;3.00;;;;;20.84;58.08;100742.81;5015019;28;45412;-58
2022/09/07 06:08:35;;;;;;;;;2.80;2.60;;;;;20.71;58.56;100736.69;5006975;28;45244;-59
2022/09/07 06:11:21;;;;;;;;;3.80;1.60;;;;;20.76;58.59;100754.53;5013618;28;45236;-58
2022/09/07 06:13:46;;;;;;;;;2.20;1.00;;;;;20.86;58.47;100754.53;5015279;28;45221;-57
2022/09/07 06:16:12;;;;;;;;;5.00;3.25;;;;;20.88;58.47;100743.09;5014755;28;45320;-56
2022/09/07 06:18:40;;;;;;;;;4.00;2.40;;;;;20.93;58.49;100745.88;5014244;28;45549;-57
2022/09/07 06:21:14;;;;;;;;;4.00;3.20;;;;;20.94;58.18;100742.81;5017919;28;45519;-56
2022/09/07 06:23:40;;;;;;;;;1.80;1.80;;;;;20.88;58.49;100743.94;5017677;28;46598;-57
2022/09/07 06:26:05;;;;;;;;;4.20;2.00;;;;;20.67;58.44;100718.84;4981732;28;45859;-58
2022/09/07 06:28:33;;;;;;;;;2.00;2.00;;;;;20.74;58.66;100720.53;5017825;28;45461;-57
2022/09/07 06:31:10;;;;;;;;;2.40;2.00;;;;;20.96;58.44;100754.53;5018043;28;45247;-58
2022/09/07 06:33:36;;;;;;;;;4.60;3.00;;;;;20.93;58.38;100746.72;5035097;28;46329;-56
2022/09/07 06:36:30;;;;;;;;;4.50;2.75;;;;;20.99;58.43;100759.53;5017769;28;45892;-58
2022/09/07 06:39:03;;;;;;;;;3.00;2.20;;;;;21.02;58.29;100751.72;5030441;28;45291;-55
2022/09/07 06:41:29;;;;;;;;;3.80;3.80;;;;;21.00;58.42;100757.59;5018472;28;45408;-57
2022/09/07 06:43:55;;;;;;;;;4.20;3.00;;;;;21.02;58.46;100748.94;5017223;28;46672;-55
2022/09/07 06:46:21;;;;;;;;;5.60;3.60;;;;;21.08;58.39;100750.59;5017293;28;45688;-53
2022/09/07 06:48:47;;;;;;;;;3.75;3.75;;;;;21.08;58.39;100742.22;5017261;28;45427;-53
2022/09/07 06:51:17;;;;;;;;;3.00;3.00;;;;;21.17;58.31;100757.25;5017812;28;45835;-57
2022/09/07 06:53:43;;;;;;;;;2.40;2.40;;;;;21.17;58.44;100753.66;5035139;28;45996;-53
2022/09/07 06:56:11;;;;;;;;;2.00;2.00;;;;;21.18;58.49;100756.13;5017167;28;45327;-52
2022/09/07 06:58:37;;;;;;;;;3.00;2.60;;;;;21.20;58.41;100750.28;5017121;28;45818;-54
2022/09/07 07:01:20;;;;;;;;;3.50;2.50;;;;;21.20;58.42;100750.28;5017289;28;45387;-57
2022/09/07 07:03:46;;;;;;;;;5.60;2.80;;;;;21.18;58.18;100741.38;5034666;28;45760;-56
2022/09/07 07:06:12;;;;;;;;;4.25;4.00;;;;;21.27;58.43;100759.19;5035103;28;45657;-56
2022/09/07 07:08:38;;;;;;;;;6.50;4.50;;;;;21.25;58.48;100737.13;5034733;28;45385;-56
2022/09/07 07:11:11;;;;;;;;;3.50;3.00;;;;;21.39;58.07;100747.69;5017206;28;45625;-54
2022/09/07 07:13:37;;;;;;;;;3.60;2.60;;;;;21.45;58.28;100746.53;5034449;28;46530;-56
2022/09/07 07:16:09;;;;;;;;;3.40;2.00;;;;;21.48;58.42;100739.56;5034561;28;45414;-53
2022/09/07 07:18:35;;;;;;;;;3.40;3.00;;;;;21.48;58.06;100734.81;5034274;28;45417;-56
2022/09/07 07:21:04;;;;;;;;;4.25;3.00;;;;;21.54;57.67;100730.03;5016660;28;45322;-56
2022/09/07 07:23:30;;;;;;;;;5.60;5.20;;;;;21.47;57.84;100715.56;5034540;28;45851;-54
2022/09/07 07:26:02;;;;;;;;;4.50;3.75;;;;;21.66;57.39;100741.72;5034266;28;45401;-51
2022/09/07 07:28:28;;;;;;;;;5.20;3.80;;;;;21.71;57.48;100743.66;4966157;28;45753;-51
2022/09/07 07:30:58;;;;;;;;;4.00;3.25;;;;;21.72;57.32;100739.75;5010123;28;45616;-55
2022/09/07 07:33:24;;;;;;;;;5.00;3.60;;;;;21.70;57.39;100733.63;5022871;28;46424;-53
2022/09/07 07:35:49;;;;;;;;;1.60;1.60;;;;;21.63;57.45;100724.69;5024680;28;45460;-54
2022/09/07 07:38:15;;;;;;;;;4.00;2.60;;;;;21.69;57.31;100737.53;5010768;28;45458;-52
2022/09/07 07:40:41;;;;;;;;;5.25;4.00;;;;;21.65;57.66;100723.28;5010477;28;45623;-50
2022/09/07 07:43:07;;;;;;;;;5.50;3.50;;;;;21.64;57.86;100726.38;5029417;28;45538;-55
2022/09/07 07:45:32;;;;;;;;;4.00;2.00;;;;;21.62;57.64;100734.19;5029684;28;45439;-55
2022/09/07 07:47:58;;;;;;;;;4.25;3.00;;;;;21.56;57.96;100721.38;5029925;28;45766;-52
2022/09/07 07:50:23;;;;;;;;;3.25;3.25;;;;;21.70;57.59;100738.34;5011765;28;45720;-56
2022/09/07 07:52:49;;;;;;;;;5.25;2.25;;;;;21.71;57.71;100728.88;5028819;28;45829;-53
2022/09/07 07:55:14;;;;;;;;;3.75;3.50;;;;;21.43;57.48;100676.22;5011738;28;45548;-52
2022/09/07 07:57:40;;;;;;;;;2.50;2.25;;;;;21.25;57.92;100659.00;5029784;28;45487;-53
2022/09/07 08:00:06;;;;;;;;;4.25;4.25;;;;;21.70;57.76;100730.84;5011708;28;46140;-53
2022/09/07 08:02:32;;;;;;;;;3.20;2.80;;;;;21.73;57.91;100735.00;5029404;28;46577;-55
2022/09/07 08:04:57;;;;;;;;;4.75;3.00;;;;;21.69;57.92;100720.78;5031700;28;45852;-54
2022/09/07 08:07:23;;;;;;;;;2.75;2.75;;;;;21.78;57.84;100732.19;5015008;28;45460;-54
2022/09/07 08:09:48;;;;;;;;;4.50;4.00;;;;;21.68;57.77;100702.34;5033234;28;45482;-52
2022/09/07 08:12:15;;;;;;;;;3.25;2.75;;;;;21.82;57.63;100716.50;5032723;28;45899;-52
2022/09/07 08:14:41;;;;;;;;;3.60;2.40;;;;;21.78;57.89;100719.03;5014987;28;45444;-52
2022/09/07 08:17:07;;;;;;;;;1.75;1.75;;;;;21.79;58.03;100731.06;4994169;28;45971;-52
2022/09/07 08:19:33;;;;;;;;;3.40;1.60;;;;;21.74;58.42;100714.34;5012896;28;45481;-52
2022/09/07 08:21:58;;;;;;;;;7.50;4.50;;;;;21.79;58.20;100717.91;5018614;28;46023;-50
2022/09/07 08:24:24;;;;;;;;;3.50;3.50;;;;;21.85;58.05;100723.47;5032795;28;45478;-50
2022/09/07 08:26:50;;;;;;;;;5.00;1.60;;;;;21.82;58.49;100727.69;5032978;28;45575;-53
2022/09/07 08:29:15;;;;;;;;;2.00;1.25;;;;;21.73;58.36;100702.34;5013374;28;45819;-53
2022/09/07 08:31:41;;;;;;;;;3.00;1.25;;;;;21.90;58.35;100720.66;5030807;28;48560;-54
2022/09/07 08:34:06;;;;;;;;;3.00;3.00;;;;;21.91;58.29;100725.13;5012823;28;46032;-53
2022/09/07 08:36:32;;;;;;;;;7.25;3.25;;;;;21.98;58.06;100720.03;5032475;28;45373;-53
2022/09/07 08:38:58;;;;;;;;;3.50;3.50;;;;;22.03;58.13;100727.53;5032730;28;45516;-54
2022/09/07 08:41:52;;;;;;;;;9.00;4.00;;;;;22.05;57.89;100733.69;5027115;28;45400;-51
2022/09/07 08:44:17;;;;;;;;;5.20;3.40;;;;;22.12;58.15;100733.34;5012460;28;45423;-54
2022/09/07 08:46:46;;;;;;;;;5.00;4.25;;;;;21.98;57.95;100700.47;4994937;28;45535;-50
2022/09/07 08:49:20;;;;;;;;;2.60;2.60;;;;;22.17;57.62;100713.75;4994880;28;45423;-48
2022/09/07 08:52:13;;;;;;;;;2.00;2.00;;;;;22.29;57.52;100731.00;4958658;28;47005;-57
2022/09/07 08:54:39;;;;;;;;;4.60;3.40;;;;;22.28;57.50;100720.09;5008269;28;45469;-51
2022/09/07 08:57:04;;;;;;;;;3.50;3.50;;;;;22.34;57.67;100736.56;5012845;28;45718;-50
2022/09/07 08:59:42;;;;;;;;;4.00;3.00;;;;;22.48;57.20;100733.91;5030775;28;45560;-49
2022/09/07 09:02:15;;;;;;;;;5.00;5.00;;;;;22.50;57.32;100725.22;5030397;28;45762;-51
2022/09/07 09:04:43;;;;;;;;;2.00;1.60;;;;;22.61;56.99;100721.25;5032489;28;45640;-49
2022/09/07 09:07:39;;;;;;;;;7.20;5.00;;;;;22.73;56.35;100725.63;5033044;28;45462;-48
2022/09/07 09:10:11;;;;;;;;;4.20;4.20;;;;;22.74;56.56;100716.09;5017270;28;45479;-52
2022/09/07 09:13:12;;;;;;;;;3.60;3.00;;;;;22.78;56.37;100719.13;5034478;28;45617;-50
2022/09/07 09:16:12;;;;;;;;;2.20;2.20;;;;;22.85;56.37;100714.03;5032597;28;45485;-52
2022/09/07 09:18:56;;;;;;;;;6.00;3.00;;;;;22.85;56.33;100708.44;5017167;28;45411;-48
2022/09/07 09:21:22;;;;;;;;;4.40;3.20;;;;;22.98;56.00;100718.06;5017064;28;45404;-51
2022/09/07 09:23:50;;;;;;;;;2.50;2.50;;;;;23.01;55.48;100711.91;5035003;28;46271;-49
2022/09/07 09:26:21;;;;;;;;;6.00;3.40;;;;;23.06;55.90;100717.44;5033990;28;45461;-50
2022/09/07 09:28:48;;;;;;;;;5.00;4.40;;;;;23.09;55.42;100704.78;5035365;28;45306;-53
2022/09/07 09:31:17;;;;;;;;;3.80;3.20;;;;;22.73;55.18;100622.13;5035279;28;45263;-53
2022/09/07 09:33:42;;;;;;;;;5.20;3.60;;;;;23.24;55.11;100695.38;5033105;28;46118;-49
2022/09/07 09:36:23;;;;;;;;;2.50;2.25;;;;;23.36;54.89;100703.38;5016924;28;45530;-48
2022/09/07 09:38:49;;;;;;;;;5.60;5.00;;;;;23.46;55.08;100702.41;5035085;28;45468;-49
2022/09/07 09:41:15;;;;;;;;;4.40;3.00;;;;;22.96;54.54;100614.84;5034785;28;45536;-50
2022/09/07 09:43:44;;;;;;;;;2.00;2.00;;;;;23.53;54.43;100698.09;5016903;28;46212;-53
2022/09/07 09:46:28;;;;;;;;;2.60;2.60;;;;;23.65;54.21;100691.22;5033184;28;45533;-53
2022/09/07 09:48:55;;;;;;;;;5.00;5.00;;;;;23.71;53.98;100690.03;5034712;28;45404;-51
2022/09/07 09:51:20;;;;;;;;;6.00;4.80;;;;;23.65;53.75;100683.66;5005390;28;45864;-53
2022/09/07 09:53:55;;;;;;;;;3.00;3.00;;;;;23.45;54.21;100669.94;5018133;28;45508;-51
2022/09/07 09:56:21;;;;;;;;;3.20;2.20;;;;;23.27;54.03;100645.22;5030408;28;45858;-52
2022/09/07 09:58:47;;;;;;;;;7.20;4.20;;;;;23.47;54.16;100692.88;5006070;28;45827;-48
2022/09/07 10:01:31;;;;;;;;;5.00;4.50;;;;;23.44;53.98;100676.69;4984808;28;45356;-50
2022/09/07 10:04:11;;;;;;;;;4.60;3.40;;;;;23.49;53.82;100682.22;5013018;28;45828;-51
2022/09/07 10:06:37;;;;;;;;;4.80;2.80;;;;;23.34;53.32;100672.88;4992371;28;45503;-51
2022/09/07 10:09:02;;;;;;;;;5.00;4.00;;;;;23.29;53.78;100656.13;5014800;28;45525;-55
2022/09/07 10:11:47;;;;;;;;;5.75;3.50;;;;;23.50;53.06;100683.88;5012390;28;45510;-54
2022/09/07 10:14:18;;;;;;;;;4.40;2.20;;;;;23.51;52.88;100677.97;5029880;28;45514;-53
2022/09/07 10:16:44;;;;;;;;;6.20;4.00;;;;;23.53;53.14;100672.09;5028508;28;45404;-50
2022/09/07 10:19:36;;;;;;;;;5.25;4.50;;;;;23.63;52.93;100680.31;5009582;28;45521;-52
2022/09/07 10:22:22;;;;;;;;;3.80;3.80;;;;;23.68;52.09;100680.25;5012151;28;45516;-50
2022/09/07 10:24:47;;;;;;;;;5.40;4.60;;;;;23.72;51.82;100676.84;5029963;28;46223;-53
2022/09/07 10:27:35;;;;;;;;;7.25;3.75;;;;;23.71;52.18;100683.56;4994935;28;45634;-53
2022/09/07 10:30:02;;;;;;;;;3.40;3.40;;;;;23.76;52.26;100675.09;5010662;28;45409;-50
2022/09/07 10:32:45;;;;;;;;;2.20;2.20;;;;;23.76;51.86;100686.31;5030157;28;45518;-51
2022/09/07 10:35:26;;;;;;;;;3.40;1.40;;;;;23.79;51.74;100675.31;5029680;28;46739;-56
2022/09/07 10:38:10;;;;;;;;;2.80;2.80;;;;;23.67;52.33;100650.59;5027860;28;45435;-51
2022/09/07 10:40:44;;;;;;;;;3.80;3.20;;;;;23.82;51.85;100671.09;5028642;28;45485;-56
2022/09/07 10:43:40;;;;;;;;;3.00;3.00;;;;;23.88;52.35;100667.06;4988442;28;45700;-50
2022/09/07 10:46:17;;;;;;;;;2.40;2.00;;;;;23.94;51.99;100671.47;5007600;28;45825;-53
2022/09/07 10:48:50;;;;;;;;;6.40;5.40;;;;;24.01;51.94;100665.44;5001356;28;45494;-51
2022/09/07 10:51:16;;;;;;;;;5.00;4.00;;;;;24.07;51.54;100663.44;5024667;28;46069;-51
2022/09/07 10:53:42;;;;;;;;;4.60;4.60;;;;;24.04;51.94;100670.47;5013093;28;45862;-53
2022/09/07 10:56:29;;;;;;;;;3.00;2.75;;;;;23.51;51.78;100579.13;5027886;28;45816;-51
2022/09/07 10:59:07;;;;;;;;;4.20;1.60;;;;;24.18;51.32;100673.34;5011427;28;45541;-50
2022/09/07 11:01:50;;;;;;;;;3.00;3.00;;;;;24.21;51.13;100664.31;5029518;28;45534;-49
2022/09/07 11:04:34;;;;;;;;;4.80;4.00;;;;;24.13;51.06;100636.16;5024668;28;45563;-52
2022/09/07 11:07:27;;;;;;;;;5.40;4.00;;;;;24.34;50.49;100651.47;5027989;28;45755;-51
2022/09/07 11:10:27;;;;;;;;;4.40;3.80;;;;;24.36;49.66;100659.56;5011072;28;45657;-52
2022/09/07 11:12:54;;;;;;;;;2.40;2.00;;;;;24.40;49.17;100655.03;5014016;28;45528;-52
2022/09/07 11:15:24;;;;;;;;;4.60;2.20;;;;;24.16;47.43;100615.94;5029552;28;45542;-54
2022/09/07 11:18:19;;;;;;;;;4.20;3.20;;;;;24.34;48.48;100645.84;5009597;28;45703;-51
2022/09/07 11:20:54;;;;;;;;;1.80;1.80;;;;;24.23;47.67;100653.63;5026083;28;45499;-51
2022/09/07 11:23:43;;;;;;;;;2.00;1.00;;;;;24.20;47.99;100645.84;5011475;28;45488;-53
2022/09/07 11:26:44;;;;;;;;;2.00;2.00;;;;;24.08;47.48;100635.09;5028946;28;45574;-52
2022/09/07 11:29:14;;;;;;;;;4.40;2.00;;;;;24.18;47.46;100650.91;5028123;28;45937;-51
2022/09/07 11:31:48;;;;;;;;;6.00;3.00;;;;;23.89;47.57;100629.50;4994913;28;45436;-53
2022/09/07 11:34:20;;;;;;;;;5.80;2.80;;;;;24.04;48.09;100647.19;4996050;28;45475;-48
2022/09/07 11:37:05;;;;;;;;;1.20;1.00;;;;;23.99;48.33;100647.28;5012269;28;45454;-52
2022/09/07 11:39:50;;;;;;;;;3.80;1.00;;;;;23.90;48.66;100638.75;5032633;28;46288;-52